createdAt,value
2023-03-21T00:01:53.876Z,2.28
2023-03-21T00:04:22.328Z,1.42
2023-03-21T00:06:49.335Z,1.70
2023-03-21T00:09:16.566Z,1.80
2023-03-21T00:11:43.990Z,2.15
2023-03-21T00:14:15.145Z,2.03
2023-03-21T00:16:45.760Z,2.42
2023-03-21T00:19:14.462Z,2.10
2023-03-21T00:22:05.986Z,1.83
2023-03-21T00:24:30.135Z,2.63
2023-03-21T00:27:06.068Z,1.90
2023-03-21T00:29:43.036Z,1.40
2023-03-21T00:32:09.921Z,1.77
2023-03-21T00:34:48.421Z,3.83
2023-03-21T00:37:21.751Z,2.35
2023-03-21T00:39:49.446Z,2.85
2023-03-21T00:42:16.755Z,4.07
2023-03-21T00:44:44.841Z,2.85
2023-03-21T00:47:13.120Z,3.75
2023-03-21T00:49:40.339Z,3.88
2023-03-21T00:52:20.181Z,4.40
2023-03-21T00:54:51.815Z,5.43
2023-03-21T00:57:22.027Z,7.85
2023-03-21T00:59:51.249Z,7.45
2023-03-21T01:02:22.866Z,8.50
2023-03-21T01:04:50.571Z,5.70
2023-03-21T01:07:17.582Z,5.00
2023-03-21T01:09:44.623Z,4.47
2023-03-21T01:12:11.743Z,6.68
2023-03-21T01:14:38.780Z,6.88
2023-03-21T01:17:06.374Z,6.95
2023-03-21T01:19:50.224Z,8.48
2023-03-21T01:22:19.331Z,8.38
2023-03-21T01:24:55.111Z,5.93
2023-03-21T01:27:25.516Z,8.15
2023-03-21T01:29:52.556Z,7.60
2023-03-21T01:32:19.568Z,6.18
2023-03-21T01:34:46.574Z,7.40
2023-03-21T01:37:14.572Z,4.72
2023-03-21T01:39:47.537Z,6.43
2023-03-21T01:42:15.499Z,6.13
2023-03-21T01:44:53.246Z,4.15
2023-03-21T01:47:21.480Z,4.47
2023-03-21T01:49:57.909Z,5.38
2023-03-21T01:52:39.539Z,6.68
2023-03-21T01:55:23.820Z,4.05
2023-03-21T01:58:05.807Z,4.07
2023-03-21T02:00:56.956Z,6.70
2023-03-21T02:03:52.226Z,5.65
2023-03-21T02:07:04.830Z,6.22
2023-03-21T02:09:41.967Z,7.45
2023-03-21T02:12:16.323Z,5.85
2023-03-21T02:14:47.441Z,5.00
2023-03-21T02:17:35.857Z,4.55
2023-03-21T02:20:08.784Z,4.43
2023-03-21T02:22:55.925Z,5.18
2023-03-21T02:25:36.645Z,3.08
2023-03-21T02:28:13.292Z,3.95
2023-03-21T02:31:04.484Z,5.75
2023-03-21T02:33:51.318Z,5.18
2023-03-21T02:36:26.410Z,3.80
2023-03-21T02:39:02.220Z,4.80
2023-03-21T02:42:02.677Z,4.05
2023-03-21T02:44:50.443Z,5.05
2023-03-21T02:47:33.774Z,6.45
2023-03-21T02:50:13.115Z,5.28
2023-03-21T02:52:42.766Z,4.70
2023-03-21T02:55:28.240Z,2.95
2023-03-21T02:58:12.433Z,3.35
2023-03-21T03:00:47.477Z,3.97
2023-03-21T03:03:34.065Z,5.00
2023-03-21T03:06:13.517Z,4.68
2023-03-21T03:08:56.288Z,5.38
2023-03-21T03:11:41.510Z,4.63
2023-03-21T03:14:38.428Z,7.85
2023-03-21T03:17:22.586Z,5.28
2023-03-21T03:20:15.526Z,4.60
2023-03-21T03:23:11.873Z,6.40
2023-03-21T03:25:49.808Z,4.68
2023-03-21T03:28:25.071Z,6.95
2023-03-21T03:31:08.076Z,4.00
2023-03-21T03:33:44.027Z,5.78
2023-03-21T03:36:30.438Z,5.40
2023-03-21T03:39:04.414Z,5.43
2023-03-21T03:44:21.437Z,5.20
2023-03-21T03:47:08.869Z,5.30
2023-03-21T03:49:47.647Z,5.22
2023-03-21T03:52:21.754Z,6.93
2023-03-21T03:54:55.162Z,4.93
2023-03-21T03:57:26.284Z,4.65
2023-03-21T03:59:54.541Z,6.85
2023-03-21T04:02:25.566Z,10.85
2023-03-21T04:04:53.780Z,6.20
2023-03-21T04:07:22.409Z,5.82
2023-03-21T04:09:52.187Z,6.57
2023-03-21T04:12:20.890Z,6.35
2023-03-21T04:15:20.492Z,8.05
2023-03-21T04:17:55.852Z,7.13
2023-03-21T04:20:36.095Z,6.07
2023-03-21T04:23:06.103Z,6.90
2023-03-21T04:25:42.285Z,7.95
2023-03-21T04:28:15.088Z,6.03
2023-03-21T04:31:02.450Z,6.65
2023-03-21T04:33:40.766Z,5.00
2023-03-21T04:36:09.529Z,3.95
2023-03-21T04:38:37.769Z,5.38
2023-03-21T04:41:05.272Z,4.88
2023-03-21T04:43:32.288Z,9.45
2023-03-21T04:45:59.390Z,5.75
2023-03-21T04:48:26.410Z,6.90
2023-03-21T04:50:53.431Z,6.57
2023-03-21T04:53:20.403Z,5.70
2023-03-21T04:55:49.033Z,9.45
2023-03-21T04:58:20.249Z,6.40
2023-03-21T05:00:47.797Z,4.88
2023-03-21T05:03:19.776Z,8.40
2023-03-21T05:05:48.321Z,4.93
2023-03-21T05:08:16.458Z,7.05
2023-03-21T05:10:44.117Z,6.70
2023-03-21T05:13:11.760Z,6.35
2023-03-21T05:15:39.097Z,6.55
2023-03-21T05:18:10.999Z,5.90
2023-03-21T05:20:47.208Z,7.68
2023-03-21T05:23:18.622Z,7.32
2023-03-21T05:25:45.693Z,4.40
2023-03-21T05:28:21.019Z,5.88
2023-03-21T05:30:48.788Z,7.07
2023-03-21T05:33:16.653Z,7.00
2023-03-21T05:35:43.644Z,6.20
2023-03-21T05:38:12.650Z,6.25
2023-03-21T05:40:50.733Z,7.93
2023-03-21T05:43:18.588Z,9.15
2023-03-21T05:45:48.388Z,6.78
2023-03-21T05:48:17.050Z,9.25
2023-03-21T05:51:10.564Z,8.60
2023-03-21T05:53:37.684Z,7.97
2023-03-21T05:56:05.148Z,6.78
2023-03-21T05:58:41.098Z,5.45
2023-03-21T06:01:08.507Z,5.97
2023-03-21T06:03:37.804Z,5.07
2023-03-21T06:06:08.544Z,6.25
2023-03-21T06:08:50.939Z,6.05
2023-03-21T06:11:28.784Z,5.07
2023-03-21T06:14:22.331Z,7.07
2023-03-21T06:17:07.685Z,4.68
2023-03-21T06:19:41.433Z,10.38
2023-03-21T06:22:14.732Z,8.02
2023-03-21T06:24:43.037Z,8.32
2023-03-21T06:27:10.552Z,15.30
2023-03-21T06:30:00.628Z,13.57
2023-03-21T06:32:33.170Z,16.45
2023-03-21T06:35:08.634Z,11.95
2023-03-21T06:37:36.437Z,11.02
2023-03-21T06:40:05.480Z,13.80
2023-03-21T06:42:32.685Z,10.25
2023-03-21T06:45:07.018Z,8.63
2023-03-21T06:47:33.969Z,10.88
2023-03-21T06:50:03.160Z,12.88
2023-03-21T06:52:33.402Z,6.82
2023-03-21T06:55:00.352Z,5.95
2023-03-21T06:57:27.407Z,5.72
2023-03-21T06:59:55.117Z,6.70
2023-03-21T07:02:23.995Z,6.35
2023-03-21T07:05:01.117Z,8.48
2023-03-21T07:07:29.898Z,5.88
2023-03-21T07:09:57.068Z,6.82
2023-03-21T07:12:26.056Z,8.30
2023-03-21T07:15:15.995Z,10.30
2023-03-21T07:17:44.826Z,10.75
2023-03-21T07:20:12.771Z,13.15
2023-03-21T07:22:40.784Z,11.05
2023-03-21T07:25:09.020Z,7.28
2023-03-21T07:27:41.312Z,9.37
2023-03-21T07:30:10.809Z,7.45
2023-03-21T07:32:40.463Z,6.95
2023-03-21T07:35:11.162Z,6.25
2023-03-21T07:37:41.190Z,8.40
2023-03-21T07:40:10.198Z,8.07
2023-03-21T07:42:39.222Z,6.35
2023-03-21T07:45:07.829Z,8.38
2023-03-21T07:47:35.446Z,7.18
2023-03-21T07:50:04.584Z,8.57
2023-03-21T07:52:32.709Z,6.88
2023-03-21T07:54:59.694Z,6.75
2023-03-21T07:57:26.649Z,8.77
2023-03-21T07:59:53.590Z,7.45
2023-03-21T08:02:20.584Z,7.07
2023-03-21T08:04:47.910Z,6.90
2023-03-21T08:07:15.221Z,7.05
2023-03-21T08:09:43.922Z,6.93
2023-03-21T08:12:11.381Z,8.05
2023-03-21T08:14:38.444Z,9.48
2023-03-21T08:17:06.555Z,8.02
2023-03-21T08:19:33.504Z,8.40
2023-03-21T08:22:01.278Z,6.10
2023-03-21T08:24:28.953Z,7.07
2023-03-21T08:26:56.206Z,8.25
2023-03-21T08:29:25.181Z,9.88
2023-03-21T08:31:52.193Z,6.97
2023-03-21T08:34:19.656Z,6.93
2023-03-21T08:36:47.183Z,9.02
2023-03-21T08:39:14.206Z,8.88
2023-03-21T08:41:41.230Z,5.97
2023-03-21T08:44:09.757Z,6.90
2023-03-21T08:46:36.997Z,12.80
2023-03-21T08:49:03.990Z,6.90
2023-03-21T08:51:31.813Z,7.28
2023-03-21T08:53:58.763Z,7.05
2023-03-21T08:56:25.863Z,9.38
2023-03-21T08:58:52.831Z,6.65
2023-03-21T09:01:19.875Z,7.63
2023-03-21T09:03:46.931Z,6.03
2023-03-21T09:06:14.351Z,9.02
2023-03-21T09:08:42.082Z,7.82
2023-03-21T09:11:10.493Z,7.53
2023-03-21T09:13:37.521Z,8.93
2023-03-21T09:16:05.333Z,8.25
2023-03-21T09:18:49.499Z,7.95
2023-03-21T09:21:18.596Z,9.15
2023-03-21T09:23:46.786Z,9.35
2023-03-21T09:26:14.371Z,8.52
2023-03-21T09:28:41.580Z,10.10
2023-03-21T09:31:11.956Z,10.70
2023-03-21T09:33:42.469Z,8.68
2023-03-21T09:36:12.098Z,7.72
2023-03-21T09:38:40.658Z,7.90
2023-03-21T09:41:50.358Z,11.38
2023-03-21T09:44:32.467Z,6.40
2023-03-21T09:47:25.123Z,6.83
2023-03-21T09:50:13.519Z,7.03
2023-03-21T09:52:57.178Z,7.72
2023-03-21T09:55:35.229Z,8.20
2023-03-21T09:58:08.144Z,7.88
2023-03-21T10:03:23.836Z,6.63
2023-03-21T10:05:58.683Z,6.82
2023-03-21T10:08:32.079Z,7.75
2023-03-21T10:11:03.846Z,7.20
2023-03-21T10:13:37.877Z,6.32
2023-03-21T10:16:15.852Z,6.28
2023-03-21T10:18:44.404Z,5.97
2023-03-21T10:21:58.513Z,6.88
2023-03-21T10:24:21.923Z,7.55
2023-03-21T10:26:51.393Z,5.95
2023-03-21T10:29:22.550Z,8.57
2023-03-21T10:31:51.759Z,7.78
2023-03-21T10:34:20.748Z,8.77
2023-03-21T10:36:47.988Z,8.57
2023-03-21T10:39:52.226Z,6.55
2023-03-21T10:42:21.549Z,5.38
2023-03-21T10:44:50.641Z,6.45
2023-03-21T10:47:27.410Z,6.43
2023-03-21T10:50:07.212Z,5.70
2023-03-21T10:52:36.613Z,5.97
2023-03-21T10:55:19.124Z,8.20
2023-03-21T10:57:47.435Z,5.82
2023-03-21T11:00:29.181Z,5.90
2023-03-21T11:02:57.995Z,3.97
2023-03-21T11:05:27.133Z,4.78
2023-03-21T11:08:03.504Z,6.78
2023-03-21T11:10:48.198Z,6.40
2023-03-21T11:13:24.431Z,5.97
2023-03-21T11:16:05.087Z,3.92
2023-03-21T11:18:35.374Z,6.25
2023-03-21T11:21:08.105Z,5.63
2023-03-21T11:23:38.849Z,7.03
2023-03-21T11:26:11.957Z,5.50
2023-03-21T11:28:41.578Z,7.43
2023-03-21T11:31:09.539Z,3.97
2023-03-21T11:33:52.166Z,6.85
2023-03-21T11:36:19.274Z,7.15
2023-03-21T11:39:12.638Z,7.32
2023-03-21T11:41:42.353Z,4.15
2023-03-21T11:44:41.392Z,6.43
2023-03-21T11:47:11.082Z,5.28
2023-03-21T11:49:38.195Z,6.60
2023-03-21T11:52:20.878Z,12.48
2023-03-21T11:55:21.288Z,6.38
2023-03-21T11:58:08.456Z,5.32
2023-03-21T12:01:01.089Z,5.15
2023-03-21T12:03:48.623Z,4.82
2023-03-21T12:06:36.248Z,4.70
2023-03-21T12:09:29.113Z,4.80
2023-03-21T12:12:26.943Z,3.90
2023-03-21T12:15:06.311Z,3.35
2023-03-21T12:17:36.405Z,2.42
2023-03-21T12:20:33.311Z,1.10
2023-03-21T12:23:12.576Z,1.00
2023-03-21T12:26:01.449Z,1.95
2023-03-21T12:28:40.521Z,3.65
2023-03-21T12:31:07.561Z,3.95
2023-03-21T12:33:38.040Z,1.70
2023-03-21T12:36:24.094Z,1.58
2023-03-21T12:39:19.364Z,1.00
2023-03-21T12:42:05.292Z,1.48
2023-03-21T12:44:47.384Z,4.10
2023-03-21T12:47:19.910Z,1.05
2023-03-21T12:50:08.424Z,1.10
2023-03-21T12:52:50.235Z,1.98
2023-03-21T12:55:22.950Z,1.10
2023-03-21T12:57:57.763Z,1.10
2023-03-21T13:00:48.334Z,0.95
2023-03-21T13:03:33.526Z,2.88
2023-03-21T13:06:09.094Z,1.02
2023-03-21T13:08:42.121Z,1.38
2023-03-21T13:11:14.063Z,0.98
2023-03-21T13:14:06.197Z,2.83
2023-03-21T13:16:37.334Z,1.10
2023-03-21T13:19:44.595Z,3.15
2023-03-21T13:22:29.700Z,1.10
2023-03-21T13:25:17.978Z,0.98
2023-03-21T13:28:10.954Z,1.63
2023-03-21T13:30:38.474Z,7.10
2023-03-21T13:33:11.798Z,1.58
2023-03-21T13:35:45.130Z,2.13
2023-03-21T13:38:20.409Z,1.65
2023-03-21T13:40:56.607Z,27.25
2023-03-21T13:43:45.509Z,4.55
2023-03-21T13:46:15.818Z,1.77
2023-03-21T13:49:01.382Z,7.10
2023-03-21T13:51:28.307Z,2.42
2023-03-21T13:54:08.236Z,3.28
2023-03-21T13:56:47.742Z,1.30
2023-03-21T13:59:19.188Z,1.60
2023-03-21T14:02:04.462Z,1.33
2023-03-21T14:04:42.706Z,1.15
2023-03-21T14:07:23.617Z,1.02
2023-03-21T14:09:53.320Z,1.35
2023-03-21T14:12:24.937Z,1.30
2023-03-21T14:15:14.088Z,2.92
2023-03-21T14:18:00.048Z,1.30
2023-03-21T14:20:38.391Z,4.65
2023-03-21T14:23:07.010Z,2.15
2023-03-21T14:25:46.851Z,1.40
2023-03-21T14:28:26.319Z,2.67
2023-03-21T14:30:58.162Z,2.58
2023-03-21T14:33:41.694Z,1.48
2023-03-21T14:36:18.213Z,2.40
2023-03-21T14:39:26.457Z,2.15
2023-03-21T14:42:07.976Z,2.38
2023-03-21T14:44:57.860Z,1.42
2023-03-21T14:47:28.180Z,1.55
2023-03-21T14:49:56.440Z,3.50
2023-03-21T14:52:34.337Z,5.03
2023-03-21T14:55:05.328Z,1.98
2023-03-21T14:57:33.655Z,1.50
2023-03-21T15:00:12.285Z,4.38
2023-03-21T15:02:41.785Z,3.03
2023-03-21T15:05:30.182Z,2.05
2023-03-21T15:08:03.656Z,2.25
2023-03-21T15:10:31.895Z,3.38
2023-03-21T15:13:02.363Z,1.60
2023-03-21T15:15:31.385Z,3.85
2023-03-21T15:18:03.746Z,1.33
2023-03-21T15:20:34.097Z,3.60
2023-03-21T15:23:09.863Z,6.80
2023-03-21T15:25:38.450Z,1.73
2023-03-21T15:28:06.668Z,4.57
2023-03-21T15:30:35.179Z,2.95
2023-03-21T15:33:10.400Z,1.58
2023-03-21T15:35:45.373Z,1.65
2023-03-21T15:38:40.161Z,3.75
2023-03-21T15:41:23.990Z,1.95
2023-03-21T15:44:05.166Z,2.03
2023-03-21T15:46:42.061Z,2.42
2023-03-21T15:49:14.838Z,1.30
2023-03-21T15:54:37.815Z,3.67
2023-03-21T15:57:24.926Z,2.95
2023-03-21T15:59:58.488Z,1.38
2023-03-21T16:02:31.285Z,2.10
2023-03-21T16:05:15.887Z,2.20
2023-03-21T16:07:46.202Z,2.63
2023-03-21T16:10:37.427Z,1.70
2023-03-21T16:13:05.719Z,2.35
2023-03-21T16:15:33.488Z,1.58
2023-03-21T16:18:04.137Z,3.47
2023-03-21T16:20:40.526Z,1.50
2023-03-21T16:23:08.992Z,1.67
2023-03-21T16:25:36.009Z,2.53
2023-03-21T16:28:03.080Z,1.58
2023-03-21T16:30:30.381Z,2.40
2023-03-21T16:32:57.608Z,1.90
2023-03-21T16:35:26.146Z,1.40
2023-03-21T16:37:53.417Z,1.65
2023-03-21T16:40:44.457Z,1.60
2023-03-21T16:43:11.533Z,2.30
2023-03-21T16:45:38.608Z,2.47
2023-03-21T16:48:05.873Z,3.63
2023-03-21T16:50:36.311Z,4.10
2023-03-21T16:53:03.823Z,2.03
2023-03-21T16:55:33.649Z,3.03
2023-03-21T16:58:01.133Z,2.92
2023-03-21T17:00:30.754Z,2.35
2023-03-21T17:03:03.244Z,2.15
2023-03-21T17:05:30.891Z,3.17
2023-03-21T17:08:02.059Z,2.95
2023-03-21T17:10:31.356Z,5.32
2023-03-21T17:12:58.573Z,3.10
2023-03-21T17:15:25.835Z,4.07
2023-03-21T17:18:00.595Z,3.95
2023-03-21T17:20:33.545Z,3.13
2023-03-21T17:23:01.333Z,2.97
2023-03-21T17:25:32.488Z,2.47
2023-03-21T17:27:59.731Z,2.25
2023-03-21T17:30:35.019Z,2.88
2023-03-21T17:33:03.050Z,2.92
2023-03-21T17:35:39.609Z,3.78
2023-03-21T17:38:24.325Z,1.83
2023-03-21T17:41:00.062Z,4.93
2023-03-21T17:43:43.208Z,3.45
2023-03-21T17:46:32.554Z,2.72
2023-03-21T17:49:12.216Z,2.17
2023-03-21T17:51:51.897Z,2.08
2023-03-21T17:54:39.886Z,3.95
2023-03-21T17:57:25.987Z,2.67
2023-03-21T18:00:12.592Z,1.98
2023-03-21T18:02:47.943Z,5.22
2023-03-21T18:05:22.653Z,3.38
2023-03-21T18:08:15.531Z,2.28
2023-03-21T18:10:43.130Z,2.97
2023-03-21T18:13:11.462Z,3.28
2023-03-21T18:15:44.625Z,2.40
2023-03-21T18:18:13.246Z,2.95
2023-03-21T18:20:58.375Z,3.20
2023-03-21T18:23:26.228Z,3.42
2023-03-21T18:25:56.128Z,2.42
2023-03-21T18:31:23.679Z,3.03
2023-03-21T18:33:57.721Z,3.10
2023-03-21T18:36:46.091Z,3.10
2023-03-21T18:39:13.482Z,5.25
2023-03-21T18:41:40.906Z,2.92
2023-03-21T18:44:26.657Z,3.38
2023-03-21T18:50:14.760Z,3.70
2023-03-21T18:53:00.124Z,3.63
2023-03-21T18:58:29.137Z,2.95
2023-03-21T19:00:58.402Z,2.55
2023-03-21T19:03:35.825Z,2.10
2023-03-21T19:06:05.834Z,2.78
2023-03-21T19:08:36.963Z,2.83
2023-03-21T19:11:06.627Z,2.38
2023-03-21T19:13:35.260Z,2.10
2023-03-21T19:16:03.116Z,2.28
2023-03-21T19:18:52.205Z,1.73
2023-03-21T19:21:22.099Z,2.63
2023-03-21T19:24:22.971Z,3.45
2023-03-21T19:26:37.273Z,2.00
2023-03-21T19:29:05.031Z,2.22
2023-03-21T19:31:34.291Z,2.55
2023-03-21T19:34:01.716Z,1.80
2023-03-21T19:36:28.796Z,2.22
2023-03-21T19:38:56.452Z,4.88
2023-03-21T19:41:23.428Z,4.10
2023-03-21T19:43:55.145Z,3.50
2023-03-21T19:46:27.046Z,2.05
2023-03-21T19:48:56.515Z,2.08
2023-03-21T19:51:29.784Z,1.95
2023-03-21T19:53:59.142Z,5.18
2023-03-21T19:56:27.590Z,3.25
2023-03-21T19:58:56.095Z,2.00
2023-03-21T20:01:27.755Z,3.47
2023-03-21T20:03:55.596Z,2.33
2023-03-21T20:06:24.003Z,2.88
2023-03-21T20:11:39.666Z,4.15
2023-03-21T20:14:07.645Z,4.47
2023-03-21T20:16:37.208Z,2.53
2023-03-21T20:19:06.158Z,4.43
2023-03-21T20:21:44.823Z,3.92
2023-03-21T20:24:16.850Z,4.60
2023-03-21T20:26:45.795Z,5.15
2023-03-21T20:30:14.613Z,3.20
2023-03-21T20:32:00.199Z,4.10
2023-03-21T20:34:29.123Z,4.90
2023-03-21T20:37:01.621Z,3.42
2023-03-21T20:39:29.969Z,7.43
2023-03-21T20:41:59.708Z,3.30
2023-03-21T20:44:52.322Z,6.40
2023-03-21T20:47:15.129Z,3.47
2023-03-21T20:49:42.238Z,2.65
2023-03-21T20:54:59.970Z,3.15
2023-03-21T20:57:27.791Z,4.60
2023-03-21T20:59:55.996Z,2.78
2023-03-21T21:02:23.829Z,3.08
2023-03-21T21:05:21.529Z,4.63
2023-03-21T21:07:40.822Z,3.42
2023-03-21T21:10:10.865Z,4.50
2023-03-21T21:12:39.543Z,4.68
2023-03-21T21:15:08.717Z,4.75
2023-03-21T21:20:23.925Z,2.67
2023-03-21T21:23:01.229Z,2.42
2023-03-21T21:25:31.868Z,2.42
2023-03-21T21:27:59.036Z,4.72
2023-03-21T21:30:26.767Z,4.40
2023-03-21T21:33:00.544Z,2.50
2023-03-21T21:35:27.653Z,3.20
2023-03-21T21:37:54.793Z,3.17
2023-03-21T21:40:23.678Z,4.35
2023-03-21T21:42:51.495Z,3.67
2023-03-21T21:45:19.048Z,3.38
2023-03-21T21:47:52.688Z,3.80
2023-03-21T21:50:22.156Z,3.10
2023-03-21T21:52:54.383Z,4.75
2023-03-21T21:55:21.839Z,3.53
2023-03-21T21:57:50.901Z,2.58
2023-03-21T22:00:19.875Z,3.03
2023-03-21T22:18:38.580Z,4.13
2023-03-21T22:21:06.787Z,2.15
2023-03-21T22:23:33.743Z,6.50
2023-03-21T22:26:01.297Z,2.58
2023-03-21T22:28:28.269Z,4.65
2023-03-21T22:30:56.156Z,2.08
2023-03-21T22:33:23.237Z,2.63
2023-03-21T22:35:51.532Z,2.90
2023-03-21T22:38:28.109Z,4.97
2023-03-21T22:40:59.734Z,1.80
2023-03-21T22:43:27.426Z,3.33
2023-03-21T22:45:55.822Z,2.90
2023-03-21T22:48:23.308Z,3.55
2023-03-21T22:50:50.461Z,3.58
2023-03-21T22:53:17.432Z,5.00
2023-03-21T22:55:44.612Z,6.03
2023-03-21T22:58:11.839Z,5.05
2023-03-21T23:00:39.326Z,5.70
2023-03-21T23:03:06.620Z,3.28
2023-03-21T23:05:33.598Z,7.50
2023-03-21T23:08:00.596Z,3.53
2023-03-21T23:10:27.551Z,5.60
2023-03-21T23:12:54.608Z,3.83
2023-03-21T23:15:21.631Z,2.83
2023-03-21T23:17:48.694Z,5.30
2023-03-21T23:20:16.455Z,4.15
2023-03-21T23:22:43.556Z,6.43
2023-03-21T23:25:11.980Z,2.95
2023-03-21T23:27:39.101Z,5.55
2023-03-21T23:30:07.641Z,5.38
2023-03-21T23:32:35.597Z,3.33
2023-03-21T23:35:03.250Z,5.15
2023-03-21T23:37:30.230Z,7.15
2023-03-21T23:39:57.233Z,3.05
2023-03-21T23:42:28.092Z,4.72
2023-03-21T23:44:55.081Z,3.72
2023-03-21T23:47:22.038Z,4.65
2023-03-21T23:49:50.040Z,5.03
2023-03-21T23:52:17.041Z,5.13
2023-03-21T23:54:43.939Z,6.47
2023-03-21T23:57:11.243Z,10.07
2023-03-21T23:59:38.165Z,3.78
